createdAt,value
2023-01-28T00:00:48.735Z,3.93
2023-01-28T00:01:48.758Z,3.97
2023-01-28T00:02:48.787Z,3.86
2023-01-28T00:03:48.818Z,3.92
2023-01-28T00:04:48.824Z,3.94
2023-01-28T00:05:48.845Z,3.85
2023-01-28T00:06:48.865Z,3.82
2023-01-28T00:07:48.888Z,3.85
2023-01-28T00:08:48.910Z,3.82
2023-01-28T00:09:48.935Z,3.72
2023-01-28T00:10:48.950Z,3.69
2023-01-28T00:11:48.974Z,3.72
2023-01-28T00:12:48.998Z,3.75
2023-01-28T00:13:49.017Z,3.64
2023-01-28T00:14:49.059Z,3.67
2023-01-28T00:15:49.092Z,3.66
2023-01-28T00:16:49.089Z,3.54
2023-01-28T00:17:49.106Z,3.57
2023-01-28T00:18:49.125Z,3.58
2023-01-28T00:19:49.152Z,3.56
2023-01-28T00:20:49.170Z,3.51
2023-01-28T00:21:49.206Z,3.29
2023-01-28T00:22:51.964Z,3.37
2023-01-28T00:23:49.235Z,3.35
2023-01-28T00:24:49.254Z,3.32
2023-01-28T00:25:49.279Z,3.37
2023-01-28T00:26:49.297Z,3.37
2023-01-28T00:27:49.320Z,3.30
2023-01-28T00:28:49.338Z,3.19
2023-01-28T00:29:49.366Z,3.29
2023-01-28T00:30:49.412Z,3.24
2023-01-28T00:31:49.484Z,3.13
2023-01-28T00:32:49.426Z,3.17
2023-01-28T00:33:49.452Z,3.19
2023-01-28T00:34:49.483Z,3.11
2023-01-28T00:35:49.501Z,3.05
2023-01-28T00:36:49.514Z,3.06
2023-01-28T00:37:49.543Z,3.01
2023-01-28T00:38:49.555Z,3.01
2023-01-28T00:39:49.579Z,3.01
2023-01-28T00:40:49.602Z,3.06
2023-01-28T00:41:49.623Z,3.02
2023-01-28T00:42:49.639Z,3.02
2023-01-28T00:43:49.666Z,2.99
2023-01-28T00:44:49.684Z,3.03
2023-01-28T00:45:50.376Z,3.06
2023-01-28T00:46:49.749Z,3.06
2023-01-28T00:47:49.765Z,2.99
2023-01-28T00:48:49.780Z,3.09
2023-01-28T00:49:49.793Z,3.05
2023-01-28T00:50:49.813Z,3.02
2023-01-28T00:51:49.859Z,3.03
2023-01-28T00:52:49.856Z,3.01
2023-01-28T00:53:49.887Z,2.99
2023-01-28T00:54:49.900Z,2.95
2023-01-28T00:55:49.923Z,2.95
2023-01-28T00:56:49.954Z,2.88
2023-01-28T00:57:49.964Z,2.90
2023-01-28T00:58:49.989Z,2.81
2023-01-28T00:59:50.009Z,2.85
2023-01-28T01:00:50.027Z,2.78
2023-01-28T01:01:50.144Z,2.85
2023-01-28T01:02:50.170Z,2.81
2023-01-28T01:03:50.092Z,2.69
2023-01-28T01:04:50.113Z,2.80
2023-01-28T01:05:50.139Z,2.83
2023-01-28T01:06:50.164Z,2.76
2023-01-28T01:07:50.177Z,2.72
2023-01-28T01:08:50.264Z,2.80
2023-01-28T01:09:50.221Z,2.59
2023-01-28T01:10:50.251Z,2.72
2023-01-28T01:11:50.264Z,2.60
2023-01-28T01:12:50.285Z,2.62
2023-01-28T01:13:50.306Z,2.59
2023-01-28T01:14:50.325Z,2.58
2023-01-28T01:15:50.410Z,2.58
2023-01-28T01:16:50.367Z,2.59
2023-01-28T01:17:50.394Z,2.49
2023-01-28T01:18:50.427Z,2.45
2023-01-28T01:19:50.435Z,2.44
2023-01-28T01:20:52.195Z,2.59
2023-01-28T01:21:50.902Z,2.42
2023-01-28T01:22:50.497Z,2.38
2023-01-28T01:23:50.529Z,2.38
2023-01-28T01:24:50.540Z,2.38
2023-01-28T01:25:50.560Z,2.34
2023-01-28T01:26:50.579Z,2.34
2023-01-28T01:27:50.613Z,2.23
2023-01-28T01:28:50.619Z,2.22
2023-01-28T01:29:50.647Z,2.22
2023-01-28T01:30:50.712Z,2.20
2023-01-28T01:31:50.756Z,2.24
2023-01-28T01:32:50.742Z,2.26
2023-01-28T01:33:50.740Z,2.23
2023-01-28T01:34:50.791Z,2.11
2023-01-28T01:35:50.805Z,2.13
2023-01-28T01:36:50.807Z,2.04
2023-01-28T01:37:50.831Z,2.06
2023-01-28T01:38:50.831Z,1.98
2023-01-28T01:39:50.852Z,2.05
2023-01-28T01:40:50.876Z,2.05
2023-01-28T01:41:50.894Z,2.05
2023-01-28T01:42:50.920Z,2.01
2023-01-28T01:43:50.936Z,2.08
2023-01-28T01:44:50.967Z,2.04
2023-01-28T01:45:50.993Z,2.02
2023-01-28T01:46:50.999Z,1.94
2023-01-28T01:47:51.021Z,1.98
2023-01-28T01:48:51.043Z,1.92
2023-01-28T01:49:51.062Z,2.01
2023-01-28T01:50:51.105Z,1.90
2023-01-28T01:51:51.107Z,1.90
2023-01-28T01:52:51.128Z,1.83
2023-01-28T01:53:51.150Z,1.92
2023-01-28T01:54:51.168Z,1.90
2023-01-28T01:55:51.207Z,1.90
2023-01-28T01:56:51.223Z,1.93
2023-01-28T01:57:51.232Z,1.87
2023-01-28T01:58:51.256Z,1.93
2023-01-28T01:59:51.275Z,1.87
2023-01-28T02:00:51.300Z,1.86
2023-01-28T02:01:51.338Z,1.89
2023-01-28T02:02:51.336Z,1.89
2023-01-28T02:03:51.419Z,1.97
2023-01-28T02:04:51.398Z,2.02
2023-01-28T02:05:51.396Z,1.92
2023-01-28T02:06:51.491Z,2.01
2023-01-28T02:07:51.670Z,2.02
2023-01-28T02:08:51.463Z,1.97
2023-01-28T02:09:51.482Z,2.01
2023-01-28T02:10:51.502Z,2.01
2023-01-28T02:11:51.530Z,2.02
2023-01-28T02:12:51.546Z,1.89
2023-01-28T02:13:51.565Z,1.94
2023-01-28T02:14:51.586Z,1.90
2023-01-28T02:15:51.605Z,1.86
2023-01-28T02:16:51.671Z,1.89
2023-01-28T02:17:51.657Z,1.87
2023-01-28T02:18:51.668Z,1.89
2023-01-28T02:19:51.688Z,1.87
2023-01-28T02:20:51.714Z,1.83
2023-01-28T02:21:51.748Z,1.79
2023-01-28T02:22:51.800Z,1.87
2023-01-28T02:23:51.830Z,1.79
2023-01-28T02:24:51.815Z,1.82
2023-01-28T02:25:51.813Z,1.74
2023-01-28T02:26:51.849Z,1.69
2023-01-28T02:27:51.856Z,1.75
2023-01-28T02:28:51.883Z,1.84
2023-01-28T02:29:51.896Z,1.74
2023-01-28T02:30:52.065Z,1.71
2023-01-28T02:31:52.123Z,1.61
2023-01-28T02:32:51.960Z,1.75
2023-01-28T02:33:51.983Z,1.71
2023-01-28T02:34:52.000Z,1.68
2023-01-28T02:35:52.024Z,1.60
2023-01-28T02:36:52.044Z,1.60
2023-01-28T02:37:52.067Z,1.64
2023-01-28T02:38:52.103Z,1.68
2023-01-28T02:39:52.103Z,1.68
2023-01-28T02:40:52.127Z,1.76
2023-01-28T02:41:52.156Z,1.78
2023-01-28T02:42:52.171Z,1.72
2023-01-28T02:43:52.186Z,1.76
2023-01-28T02:44:52.208Z,1.72
2023-01-28T02:45:52.274Z,1.82
2023-01-28T02:46:52.250Z,1.82
2023-01-28T02:47:52.267Z,1.87
2023-01-28T02:48:52.292Z,1.86
2023-01-28T02:49:52.309Z,1.82
2023-01-28T02:50:52.342Z,1.76
2023-01-28T02:51:52.352Z,1.84
2023-01-28T02:52:52.387Z,1.83
2023-01-28T02:53:52.393Z,1.75
2023-01-28T02:54:52.434Z,1.78
2023-01-28T02:55:52.435Z,1.76
2023-01-28T02:56:52.456Z,1.76
2023-01-28T02:57:52.477Z,1.71
2023-01-28T02:58:52.496Z,1.69
2023-01-28T02:59:52.519Z,1.65
2023-01-28T03:00:52.537Z,1.66
2023-01-28T03:01:52.633Z,1.61
2023-01-28T03:02:52.641Z,1.68
2023-01-28T03:03:52.598Z,1.69
2023-01-28T03:04:52.620Z,1.78
2023-01-28T03:05:52.640Z,1.76
2023-01-28T03:06:52.660Z,1.72
2023-01-28T03:07:52.682Z,1.74
2023-01-28T03:08:52.713Z,1.71
2023-01-28T03:09:52.721Z,1.57
2023-01-28T03:10:52.767Z,1.65
2023-01-28T03:11:52.763Z,1.64
2023-01-28T03:12:53.034Z,1.65
2023-01-28T03:13:53.004Z,1.68
2023-01-28T03:14:53.025Z,1.66
2023-01-28T03:15:52.928Z,1.64
2023-01-28T03:16:52.966Z,1.72
2023-01-28T03:17:52.990Z,1.74
2023-01-28T03:18:53.006Z,1.78
2023-01-28T03:19:52.927Z,1.72
2023-01-28T03:20:52.946Z,1.71
2023-01-28T03:21:52.966Z,1.79
2023-01-28T03:22:52.992Z,1.69
2023-01-28T03:23:53.089Z,1.71
2023-01-28T03:24:53.048Z,1.71
2023-01-28T03:25:53.049Z,1.61
2023-01-28T03:26:53.099Z,1.61
2023-01-28T03:27:53.088Z,1.68
2023-01-28T03:28:53.115Z,1.69
2023-01-28T03:29:53.133Z,1.61
2023-01-28T03:30:53.162Z,1.68
2023-01-28T03:31:53.199Z,1.60
2023-01-28T03:32:53.191Z,1.66
2023-01-28T03:33:53.214Z,1.68
2023-01-28T03:34:53.231Z,1.57
2023-01-28T03:35:53.252Z,1.65
2023-01-28T03:36:53.290Z,1.64
2023-01-28T03:37:53.290Z,1.64
2023-01-28T03:38:53.312Z,1.68
2023-01-28T03:39:53.333Z,1.54
2023-01-28T03:40:53.356Z,1.64
2023-01-28T03:41:53.374Z,1.57
2023-01-28T03:42:53.416Z,1.58
2023-01-28T03:43:53.420Z,1.57
2023-01-28T03:44:53.435Z,1.50
2023-01-28T03:45:53.460Z,1.56
2023-01-28T03:46:53.477Z,1.53
2023-01-28T03:47:53.499Z,1.50
2023-01-28T03:48:53.518Z,1.56
2023-01-28T03:49:53.538Z,1.53
2023-01-28T03:50:53.554Z,1.51
2023-01-28T03:51:53.576Z,1.54
2023-01-28T03:52:53.598Z,1.54
2023-01-28T03:53:53.623Z,1.53
2023-01-28T03:54:53.635Z,1.50
2023-01-28T03:55:53.655Z,1.61
2023-01-28T03:56:53.677Z,1.66
2023-01-28T03:57:53.699Z,1.65
2023-01-28T03:58:53.777Z,1.65
2023-01-28T03:59:53.743Z,1.66
2023-01-28T04:00:53.760Z,1.56
2023-01-28T04:01:53.804Z,1.58
2023-01-28T04:02:53.944Z,1.61
2023-01-28T04:03:53.816Z,1.56
2023-01-28T04:04:53.839Z,1.51
2023-01-28T04:05:53.860Z,1.51
2023-01-28T04:06:53.883Z,1.48
2023-01-28T04:07:53.899Z,1.46
2023-01-28T04:08:53.921Z,1.42
2023-01-28T04:09:53.939Z,1.54
2023-01-28T04:10:53.965Z,1.51
2023-01-28T04:11:53.986Z,1.57
2023-01-28T04:12:54.001Z,1.57
2023-01-28T04:13:54.024Z,1.53
2023-01-28T04:14:54.063Z,1.53
2023-01-28T04:15:54.149Z,1.54
2023-01-28T04:16:54.086Z,1.48
2023-01-28T04:17:54.112Z,1.50
2023-01-28T04:18:54.126Z,1.51
2023-01-28T04:19:54.142Z,1.53
2023-01-28T04:20:54.167Z,1.46
2023-01-28T04:21:54.185Z,1.39
2023-01-28T04:22:54.206Z,1.39
2023-01-28T04:23:54.240Z,1.40
2023-01-28T04:24:54.245Z,1.35
2023-01-28T04:25:54.264Z,1.40
2023-01-28T04:26:56.215Z,1.39
2023-01-28T04:27:54.306Z,1.33
2023-01-28T04:28:54.327Z,1.32
2023-01-28T04:29:54.350Z,1.28
2023-01-28T04:30:54.443Z,1.24
2023-01-28T04:31:54.388Z,1.26
2023-01-28T04:32:54.417Z,1.21
2023-01-28T04:33:54.430Z,1.33
2023-01-28T04:34:54.451Z,1.29
2023-01-28T04:35:54.470Z,1.24
2023-01-28T04:36:54.490Z,1.26
2023-01-28T04:37:54.523Z,1.22
2023-01-28T04:38:54.529Z,1.26
2023-01-28T04:39:54.550Z,1.26
2023-01-28T04:40:54.573Z,1.21
2023-01-28T04:41:54.593Z,1.20
2023-01-28T04:42:54.614Z,1.29
2023-01-28T04:43:54.632Z,1.26
2023-01-28T04:44:54.654Z,1.30
2023-01-28T04:45:54.676Z,1.30
2023-01-28T04:46:54.812Z,1.29
2023-01-28T04:47:54.711Z,1.30
2023-01-28T04:48:54.737Z,1.46
2023-01-28T04:49:54.758Z,1.44
2023-01-28T04:50:54.774Z,1.35
2023-01-28T04:51:54.795Z,1.38
2023-01-28T04:52:54.827Z,1.54
2023-01-28T04:53:54.839Z,1.56
2023-01-28T04:54:54.859Z,1.57
2023-01-28T04:55:54.877Z,1.61
2023-01-28T04:56:54.899Z,1.57
2023-01-28T04:57:54.918Z,1.65
2023-01-28T04:58:54.941Z,1.78
2023-01-28T04:59:54.958Z,1.75
2023-01-28T05:00:55.037Z,1.76
2023-01-28T05:01:55.051Z,1.83
2023-01-28T05:02:55.038Z,1.79
2023-01-28T05:03:55.039Z,1.86
2023-01-28T05:04:55.067Z,1.86
2023-01-28T05:05:55.082Z,1.82
2023-01-28T05:06:55.104Z,1.82
2023-01-28T05:07:55.125Z,1.82
2023-01-28T05:08:55.145Z,1.89
2023-01-28T05:09:55.169Z,1.86
2023-01-28T05:10:55.186Z,1.94
2023-01-28T05:11:55.207Z,1.94
2023-01-28T05:12:55.228Z,2.02
2023-01-28T05:13:55.246Z,1.98
2023-01-28T05:14:55.271Z,2.02
2023-01-28T05:15:55.291Z,2.01
2023-01-28T05:16:55.329Z,2.05
2023-01-28T05:17:55.329Z,2.06
2023-01-28T05:18:55.383Z,2.12
2023-01-28T05:19:55.381Z,2.01
2023-01-28T05:20:55.420Z,2.15
2023-01-28T05:21:55.413Z,2.12
2023-01-28T05:22:55.436Z,2.11
2023-01-28T05:23:55.506Z,2.11
2023-01-28T05:24:55.479Z,2.24
2023-01-28T05:25:55.500Z,2.18
2023-01-28T05:26:55.518Z,2.20
2023-01-28T05:27:55.554Z,2.18
2023-01-28T05:28:55.559Z,2.16
2023-01-28T05:29:55.578Z,2.23
2023-01-28T05:30:55.650Z,2.22
2023-01-28T05:31:55.618Z,2.24
2023-01-28T05:32:55.648Z,2.23
2023-01-28T05:33:55.662Z,2.36
2023-01-28T05:34:55.705Z,2.27
2023-01-28T05:35:55.729Z,2.33
2023-01-28T05:36:55.726Z,2.33
2023-01-28T05:37:55.755Z,2.31
2023-01-28T05:38:55.771Z,2.34
2023-01-28T05:39:55.788Z,2.34
2023-01-28T05:40:55.811Z,2.33
2023-01-28T05:41:55.831Z,2.33
2023-01-28T05:42:55.853Z,2.30
2023-01-28T05:43:55.880Z,2.34
2023-01-28T05:44:55.900Z,2.48
2023-01-28T05:45:55.977Z,2.47
2023-01-28T05:46:55.937Z,2.42
2023-01-28T05:47:55.964Z,2.44
2023-01-28T05:48:55.983Z,2.42
2023-01-28T05:49:56.003Z,2.40
2023-01-28T05:50:56.039Z,2.45
2023-01-28T05:51:56.041Z,2.42
2023-01-28T05:52:56.065Z,2.44
2023-01-28T05:53:56.089Z,2.48
2023-01-28T05:54:56.105Z,2.42
2023-01-28T05:55:56.178Z,2.44
2023-01-28T05:56:56.147Z,2.40
2023-01-28T05:57:56.169Z,2.44
2023-01-28T05:58:56.188Z,2.49
2023-01-28T05:59:56.212Z,2.49
2023-01-28T06:00:56.254Z,2.49
2023-01-28T06:01:56.254Z,2.49
2023-01-28T06:02:56.281Z,2.52
2023-01-28T06:03:56.298Z,2.52
2023-01-28T06:04:56.347Z,2.55
2023-01-28T06:05:56.347Z,2.54
2023-01-28T06:06:56.378Z,2.48
2023-01-28T06:07:56.385Z,2.58
2023-01-28T06:08:56.403Z,2.54
2023-01-28T06:09:56.425Z,2.55
2023-01-28T06:10:56.456Z,2.54
2023-01-28T06:11:56.466Z,2.52
2023-01-28T06:12:56.488Z,2.49
2023-01-28T06:13:56.509Z,2.47
2023-01-28T06:14:56.528Z,2.47
2023-01-28T06:15:56.641Z,2.48
2023-01-28T06:16:56.575Z,2.44
2023-01-28T06:17:56.597Z,2.44
2023-01-28T06:18:56.615Z,2.44
2023-01-28T06:19:56.635Z,2.42
2023-01-28T06:20:56.659Z,2.47
2023-01-28T06:21:56.684Z,2.45
2023-01-28T06:22:56.720Z,2.45
2023-01-28T06:23:56.793Z,2.40
2023-01-28T06:24:56.743Z,2.45
2023-01-28T06:25:56.765Z,2.47
2023-01-28T06:26:56.791Z,2.44
2023-01-28T06:27:56.807Z,2.42
2023-01-28T06:28:56.827Z,2.48
2023-01-28T06:29:56.852Z,2.47
2023-01-28T06:30:56.887Z,2.38
2023-01-28T06:31:56.929Z,2.41
2023-01-28T06:32:56.923Z,2.49
2023-01-28T06:33:56.940Z,2.52
2023-01-28T06:34:56.954Z,2.54
2023-01-28T06:35:56.979Z,2.55
2023-01-28T06:36:57.000Z,2.54
2023-01-28T06:37:57.023Z,2.59
2023-01-28T06:38:57.060Z,2.54
2023-01-28T06:39:57.062Z,2.51
2023-01-28T06:40:57.083Z,2.51
2023-01-28T06:41:57.106Z,2.58
2023-01-28T06:42:57.125Z,2.58
2023-01-28T06:43:57.148Z,2.51
2023-01-28T06:44:57.175Z,2.52
2023-01-28T06:45:57.215Z,2.58
2023-01-28T06:46:57.211Z,2.59
2023-01-28T06:47:57.233Z,2.59
2023-01-28T06:48:57.253Z,2.59
2023-01-28T06:49:57.283Z,2.60
2023-01-28T06:50:57.296Z,2.63
2023-01-28T06:51:57.320Z,2.58
2023-01-28T06:52:57.340Z,2.65
2023-01-28T06:53:57.364Z,2.66
2023-01-28T06:54:57.400Z,2.66
2023-01-28T06:55:57.403Z,2.72
2023-01-28T06:56:57.427Z,2.67
2023-01-28T06:57:57.446Z,2.63
2023-01-28T06:58:57.472Z,2.73
2023-01-28T06:59:57.496Z,2.66
2023-01-28T07:00:57.511Z,2.65
2023-01-28T07:01:57.624Z,2.65
2023-01-28T07:02:57.653Z,2.72
2023-01-28T07:03:57.579Z,2.60
2023-01-28T07:04:57.596Z,2.70
2023-01-28T07:05:57.621Z,2.62
2023-01-28T07:06:57.643Z,2.58
2023-01-28T07:07:57.663Z,2.65
2023-01-28T07:08:57.693Z,2.73
2023-01-28T07:09:57.709Z,2.66
2023-01-28T07:10:57.751Z,2.58
2023-01-28T07:11:57.749Z,2.67
2023-01-28T07:12:57.769Z,2.69
2023-01-28T07:13:57.796Z,2.65
2023-01-28T07:14:57.811Z,2.62
2023-01-28T07:15:57.837Z,2.63
2023-01-28T07:16:57.930Z,2.62
2023-01-28T07:17:58.698Z,2.60
2023-01-28T07:18:57.897Z,2.60
2023-01-28T07:19:57.921Z,2.67
2023-01-28T07:20:57.940Z,2.66
2023-01-28T07:21:57.965Z,2.80
2023-01-28T07:22:57.986Z,2.67
2023-01-28T07:23:58.099Z,2.70
2023-01-28T07:24:58.026Z,2.66
2023-01-28T07:25:58.050Z,2.76
2023-01-28T07:26:58.087Z,2.70
2023-01-28T07:27:58.104Z,2.66
2023-01-28T07:28:58.125Z,2.66
2023-01-28T07:29:58.137Z,2.67
2023-01-28T07:30:58.201Z,2.67
2023-01-28T07:31:58.300Z,2.77
2023-01-28T07:32:58.196Z,2.62
2023-01-28T07:33:58.220Z,2.70
2023-01-28T07:34:58.245Z,2.62
2023-01-28T07:35:58.264Z,2.70
2023-01-28T07:36:58.284Z,2.59
2023-01-28T07:37:58.307Z,2.62
2023-01-28T07:38:58.329Z,2.69
2023-01-28T07:39:58.363Z,2.65
2023-01-28T07:40:58.370Z,2.73
2023-01-28T07:41:58.393Z,2.76
2023-01-28T07:42:58.439Z,2.70
2023-01-28T07:43:58.434Z,2.67
2023-01-28T07:44:58.455Z,2.69
2023-01-28T07:45:58.478Z,2.72
2023-01-28T07:46:58.542Z,2.72
2023-01-28T07:47:58.681Z,2.70
2023-01-28T07:48:58.541Z,2.69
2023-01-28T07:49:58.565Z,2.63
2023-01-28T07:50:58.587Z,2.76
2023-01-28T07:51:58.606Z,2.69
2023-01-28T07:52:58.649Z,2.84
2023-01-28T07:53:58.648Z,2.83
2023-01-28T07:54:58.667Z,2.72
2023-01-28T07:55:58.693Z,2.69
2023-01-28T07:56:58.712Z,2.78
2023-01-28T07:57:58.756Z,2.70
2023-01-28T07:58:58.777Z,2.81
2023-01-28T07:59:58.781Z,2.67
2023-01-28T08:00:58.804Z,2.76
2023-01-28T08:01:58.822Z,2.76
2023-01-28T08:02:58.872Z,2.80
2023-01-28T08:03:58.911Z,2.76
2023-01-28T08:04:58.994Z,2.72
2023-01-28T08:05:58.907Z,2.76
2023-01-28T08:06:58.966Z,2.78
2023-01-28T08:07:58.950Z,2.85
2023-01-28T08:08:58.971Z,2.88
2023-01-28T08:09:58.999Z,2.85
2023-01-28T08:10:59.132Z,2.91
2023-01-28T08:11:59.037Z,2.84
2023-01-28T08:12:59.072Z,2.88
2023-01-28T08:13:59.080Z,2.84
2023-01-28T08:14:59.120Z,2.84
2023-01-28T08:15:59.254Z,2.88
2023-01-28T08:16:59.144Z,2.83
2023-01-28T08:17:59.165Z,2.83
2023-01-28T08:18:59.194Z,2.96
2023-01-28T08:19:59.225Z,2.85
2023-01-28T08:20:59.232Z,2.95
2023-01-28T08:21:59.254Z,2.95
2023-01-28T08:22:59.271Z,3.01
2023-01-28T08:23:59.321Z,2.96
2023-01-28T08:24:59.336Z,2.98
2023-01-28T08:25:59.354Z,3.03
2023-01-28T08:26:59.359Z,2.91
2023-01-28T08:27:59.383Z,2.95
2023-01-28T08:28:59.404Z,2.81
2023-01-28T08:29:59.426Z,2.72
2023-01-28T08:30:59.542Z,2.87
2023-01-28T08:31:59.471Z,2.88
2023-01-28T08:32:59.494Z,2.83
2023-01-28T08:34:02.181Z,2.84
2023-01-28T08:34:59.534Z,2.81
2023-01-28T08:35:59.555Z,2.87
2023-01-28T08:36:59.574Z,2.91
2023-01-28T08:37:59.621Z,2.91
2023-01-28T08:38:59.625Z,2.96
2023-01-28T08:39:59.643Z,3.02
2023-01-28T08:40:59.663Z,3.05
2023-01-28T08:41:59.687Z,3.02
2023-01-28T08:42:59.704Z,3.09
2023-01-28T08:43:59.730Z,3.20
2023-01-28T08:44:59.746Z,3.16
2023-01-28T08:45:59.866Z,3.17
2023-01-28T08:46:59.809Z,3.19
2023-01-28T08:47:59.834Z,3.24
2023-01-28T08:48:59.835Z,3.21
2023-01-28T08:49:59.873Z,3.20
2023-01-28T08:50:59.879Z,3.16
2023-01-28T08:51:59.909Z,3.13
2023-01-28T08:52:59.933Z,3.13
2023-01-28T08:53:59.945Z,3.11
2023-01-28T08:54:59.993Z,3.13
2023-01-28T08:55:59.986Z,3.13
2023-01-28T08:57:00.019Z,3.13
2023-01-28T08:58:00.033Z,3.09
2023-01-28T08:59:00.054Z,3.06
2023-01-28T09:00:00.077Z,3.05
2023-01-28T09:01:00.105Z,3.06
2023-01-28T09:02:00.243Z,3.06
2023-01-28T09:03:00.187Z,3.09
2023-01-28T09:04:00.230Z,3.14
2023-01-28T09:05:00.183Z,3.16
2023-01-28T09:06:00.209Z,3.16
2023-01-28T09:07:00.222Z,3.23
2023-01-28T09:08:00.250Z,3.19
2023-01-28T09:09:00.270Z,3.11
2023-01-28T09:10:00.333Z,3.09
2023-01-28T09:11:00.318Z,3.16
2023-01-28T09:12:00.334Z,3.16
2023-01-28T09:13:00.355Z,3.08
2023-01-28T09:14:00.379Z,3.06
2023-01-28T09:15:00.413Z,3.03
2023-01-28T09:16:00.484Z,3.02
2023-01-28T09:17:00.448Z,3.06
2023-01-28T09:18:00.467Z,3.09
2023-01-28T09:19:00.504Z,3.16
2023-01-28T09:20:00.509Z,3.13
2023-01-28T09:21:00.540Z,3.16
2023-01-28T09:22:00.554Z,3.17
2023-01-28T09:23:00.579Z,3.13
2023-01-28T09:24:00.620Z,3.09
2023-01-28T09:25:00.618Z,3.11
2023-01-28T09:26:00.643Z,3.08
2023-01-28T09:27:00.661Z,2.99
2023-01-28T09:28:00.694Z,3.08
2023-01-28T09:29:00.705Z,3.09
2023-01-28T09:30:00.728Z,3.16
2023-01-28T09:31:00.881Z,3.13
2023-01-28T09:32:00.770Z,3.16
2023-01-28T09:33:00.796Z,3.11
2023-01-28T09:34:00.814Z,3.08
2023-01-28T09:35:00.856Z,3.17
2023-01-28T09:36:00.860Z,3.08
2023-01-28T09:37:00.882Z,2.99
2023-01-28T09:38:00.899Z,2.96
2023-01-28T09:39:01.807Z,2.85
2023-01-28T09:40:00.951Z,2.90
2023-01-28T09:41:00.975Z,2.87
2023-01-28T09:42:00.986Z,2.85
2023-01-28T09:43:01.011Z,3.01
2023-01-28T09:44:01.030Z,3.08
2023-01-28T09:45:01.052Z,2.99
2023-01-28T09:46:01.073Z,2.93
2023-01-28T09:47:01.166Z,2.99
2023-01-28T09:48:01.128Z,2.93
2023-01-28T09:49:01.137Z,2.83
2023-01-28T09:50:01.164Z,2.87
2023-01-28T09:51:01.200Z,2.87
2023-01-28T09:52:01.208Z,2.85
2023-01-28T09:53:01.226Z,2.91
2023-01-28T09:54:01.250Z,2.88
2023-01-28T09:55:01.265Z,2.84
2023-01-28T09:56:01.292Z,2.85
2023-01-28T09:57:01.309Z,2.85
2023-01-28T09:58:01.332Z,3.01
2023-01-28T09:59:01.357Z,2.96
2023-01-28T10:00:01.373Z,3.06
2023-01-28T10:01:01.457Z,3.03
2023-01-28T10:02:01.418Z,3.05
2023-01-28T10:03:01.441Z,3.08
2023-01-28T10:04:01.477Z,3.19
2023-01-28T10:05:01.479Z,3.09
2023-01-28T10:06:01.526Z,3.19
2023-01-28T10:07:01.576Z,3.02
2023-01-28T10:08:01.550Z,3.14
2023-01-28T10:09:01.566Z,3.19
2023-01-28T10:10:01.606Z,3.14
2023-01-28T10:11:01.612Z,3.13
2023-01-28T10:12:01.632Z,3.08
2023-01-28T10:13:01.654Z,3.06
2023-01-28T10:14:01.677Z,3.11
2023-01-28T10:15:01.697Z,3.05
2023-01-28T10:16:01.718Z,2.99
2023-01-28T10:17:01.802Z,2.93
2023-01-28T10:18:16.156Z,2.99
2023-01-28T10:19:01.783Z,3.08
2023-01-28T10:20:01.802Z,3.11
2023-01-28T10:21:01.826Z,3.09
2023-01-28T10:22:01.847Z,3.21
2023-01-28T10:23:01.893Z,3.13
2023-01-28T10:24:01.918Z,3.14
2023-01-28T10:25:02.033Z,3.20
2023-01-28T10:26:01.937Z,3.06
2023-01-28T10:27:01.957Z,3.11
2023-01-28T10:28:01.977Z,3.17
2023-01-28T10:29:02.001Z,3.11
2023-01-28T10:30:02.021Z,3.24
2023-01-28T10:31:02.064Z,3.19
2023-01-28T10:32:02.063Z,3.27
2023-01-28T10:33:02.088Z,3.37
2023-01-28T10:34:02.110Z,3.37
2023-01-28T10:35:02.130Z,3.37
2023-01-28T10:36:02.151Z,3.24
2023-01-28T10:37:02.175Z,3.39
2023-01-28T10:38:02.200Z,3.39
2023-01-28T10:39:02.241Z,3.45
2023-01-28T10:40:02.247Z,3.34
2023-01-28T10:41:02.262Z,3.43
2023-01-28T10:42:02.281Z,3.42
2023-01-28T10:43:02.308Z,3.34
2023-01-28T10:44:02.323Z,3.30
2023-01-28T10:45:02.347Z,3.40
2023-01-28T10:46:02.394Z,3.40
2023-01-28T10:47:02.391Z,3.37
2023-01-28T10:48:02.425Z,3.35
2023-01-28T10:49:02.442Z,3.30
2023-01-28T10:50:02.460Z,3.43
2023-01-28T10:51:02.488Z,3.34
2023-01-28T10:52:02.500Z,3.43
2023-01-28T10:53:02.523Z,3.42
2023-01-28T10:54:02.557Z,3.45
2023-01-28T10:55:02.622Z,3.37
2023-01-28T10:56:02.587Z,3.34
2023-01-28T10:57:02.625Z,3.39
2023-01-28T10:58:02.634Z,3.42
2023-01-28T10:59:02.701Z,3.37
2023-01-28T11:00:02.699Z,3.43
2023-01-28T11:01:02.769Z,3.53
2023-01-28T11:02:02.758Z,3.39
2023-01-28T11:03:02.744Z,3.46
2023-01-28T11:04:02.768Z,3.43
2023-01-28T11:05:02.787Z,3.49
2023-01-28T11:06:02.811Z,3.48
2023-01-28T11:07:02.829Z,3.40
2023-01-28T11:08:02.853Z,3.43
2023-01-28T11:09:02.875Z,3.46
2023-01-28T11:10:02.896Z,3.34
2023-01-28T11:11:02.962Z,3.26
2023-01-28T11:12:02.940Z,3.17
2023-01-28T11:13:02.966Z,3.19
2023-01-28T11:14:02.988Z,3.11
2023-01-28T11:15:03.032Z,3.19
2023-01-28T11:16:03.036Z,3.21
2023-01-28T11:17:03.058Z,3.20
2023-01-28T11:18:03.082Z,3.06
2023-01-28T11:19:03.101Z,3.09
2023-01-28T11:20:03.114Z,3.17
2023-01-28T11:21:03.146Z,3.11
2023-01-28T11:22:03.161Z,3.14
2023-01-28T11:23:03.183Z,3.23
2023-01-28T11:24:03.268Z,3.27
2023-01-28T11:25:03.245Z,3.29
2023-01-28T11:26:03.249Z,3.26
2023-01-28T11:27:03.290Z,3.35
2023-01-28T11:28:03.294Z,3.39
2023-01-28T11:29:03.316Z,3.51
2023-01-28T11:30:03.336Z,3.51
2023-01-28T11:31:03.444Z,3.53
2023-01-28T11:32:03.377Z,3.66
2023-01-28T11:33:03.408Z,3.64
2023-01-28T11:34:03.422Z,3.67
2023-01-28T11:35:03.462Z,3.69
2023-01-28T11:36:03.471Z,3.66
2023-01-28T11:37:03.490Z,3.67
2023-01-28T11:38:03.510Z,3.76
2023-01-28T11:39:03.536Z,3.72
2023-01-28T11:40:03.554Z,3.72
2023-01-28T11:41:03.594Z,3.72
2023-01-28T11:42:03.600Z,3.64
2023-01-28T11:43:03.642Z,3.66
2023-01-28T11:44:03.713Z,3.66
2023-01-28T11:45:03.666Z,3.63
2023-01-28T11:46:05.294Z,3.56
2023-01-28T11:47:03.710Z,3.69
2023-01-28T11:48:03.879Z,3.60
2023-01-28T11:49:03.753Z,3.56
2023-01-28T11:50:03.774Z,3.46
2023-01-28T11:51:03.799Z,3.30
2023-01-28T11:52:03.818Z,3.26
2023-01-28T11:53:07.139Z,3.35
2023-01-28T11:54:03.862Z,3.32
2023-01-28T11:55:03.884Z,3.35
2023-01-28T11:56:03.908Z,3.42
2023-01-28T11:57:03.942Z,3.45
2023-01-28T11:58:03.950Z,3.32
2023-01-28T11:59:04.001Z,3.34
2023-01-28T12:00:04.014Z,3.39
2023-01-28T12:01:04.032Z,3.42
2023-01-28T12:02:04.042Z,3.26
2023-01-28T12:03:04.062Z,3.42
2023-01-28T12:04:04.087Z,3.32
2023-01-28T12:05:04.146Z,3.30
2023-01-28T12:06:04.126Z,3.35
2023-01-28T12:07:04.148Z,3.46
2023-01-28T12:08:04.178Z,3.34
2023-01-28T12:09:04.192Z,3.35
2023-01-28T12:10:04.219Z,3.32
2023-01-28T12:11:04.235Z,3.24
2023-01-28T12:12:05.077Z,3.30
2023-01-28T12:13:04.289Z,3.32
2023-01-28T12:14:04.300Z,3.29
2023-01-28T12:15:04.344Z,3.30
2023-01-28T12:16:04.374Z,3.34
2023-01-28T12:17:04.371Z,3.39
2023-01-28T12:18:04.392Z,3.48
2023-01-28T12:19:04.411Z,3.42
2023-01-28T12:20:04.430Z,3.40
2023-01-28T12:21:04.455Z,3.40
2023-01-28T12:22:04.474Z,3.48
2023-01-28T12:23:04.503Z,3.45
2023-01-28T12:24:04.602Z,3.48
2023-01-28T12:25:04.542Z,3.53
2023-01-28T12:26:04.564Z,3.49
2023-01-28T12:27:04.587Z,3.54
2023-01-28T12:28:04.606Z,3.60
2023-01-28T12:29:04.629Z,3.54
2023-01-28T12:30:04.650Z,3.56
2023-01-28T12:31:04.775Z,3.37
2023-01-28T12:32:04.939Z,3.40
2023-01-28T12:33:04.716Z,3.51
2023-01-28T12:34:04.740Z,3.53
2023-01-28T12:35:04.765Z,3.56
2023-01-28T12:36:04.782Z,3.54
2023-01-28T12:37:04.915Z,3.60
2023-01-28T12:38:04.825Z,3.61
2023-01-28T12:39:04.849Z,3.61
2023-01-28T12:40:04.876Z,3.67
2023-01-28T12:41:04.892Z,3.45
2023-01-28T12:42:04.911Z,3.32
2023-01-28T12:43:04.937Z,3.43
2023-01-28T12:44:05.116Z,3.43
2023-01-28T12:45:04.981Z,3.30
2023-01-28T12:46:05.038Z,3.40
2023-01-28T12:47:05.041Z,3.40
2023-01-28T12:48:05.043Z,3.32
2023-01-28T12:49:05.067Z,3.35
2023-01-28T12:50:05.156Z,3.30
2023-01-28T12:51:05.110Z,3.32
2023-01-28T12:52:05.130Z,3.35
2023-01-28T12:53:05.155Z,3.32
2023-01-28T12:54:05.184Z,3.27
2023-01-28T12:55:05.199Z,3.37
2023-01-28T12:56:05.226Z,3.26
2023-01-28T12:57:05.240Z,3.29
2023-01-28T12:58:05.263Z,3.24
2023-01-28T12:59:05.286Z,3.29
2023-01-28T13:00:05.305Z,3.37
2023-01-28T13:01:05.330Z,3.26
2023-01-28T13:02:05.387Z,3.30
2023-01-28T13:03:05.498Z,3.39
2023-01-28T13:04:05.393Z,3.37
2023-01-28T13:05:05.429Z,3.45
2023-01-28T13:06:05.438Z,3.48
2023-01-28T13:07:05.462Z,3.45
2023-01-28T13:08:05.517Z,3.48
2023-01-28T13:09:05.673Z,3.56
2023-01-28T13:10:05.554Z,3.56
2023-01-28T13:11:05.558Z,3.57
2023-01-28T13:12:05.571Z,3.57
2023-01-28T13:13:05.592Z,3.66
2023-01-28T13:14:05.611Z,3.72
2023-01-28T13:15:05.638Z,3.72
2023-01-28T13:16:05.779Z,3.82
2023-01-28T13:17:05.704Z,3.90
2023-01-28T13:18:05.700Z,3.79
2023-01-28T13:19:05.753Z,3.74